Time;durP1;ratioP1;P1;durP2;ratioP2;P2;SDS_P1;SDS_P2;PMS_P1;PMS_P2;Temp;Humidity;BMP_temperature;BMP_pressure;BME280_temperature;BME280_humidity;BME280_pressure;Samples;Min_cycle;Max_cycle;Signal;HPM_P1;HPM_P2
2022/03/16 00:02:09;;;;;;;13.90;8.50;;;7.60;99.90;;;;;;5032069;28;20289;-68
2022/03/16 00:04:35;;;;;;;13.07;8.80;;;7.50;99.90;;;;;;5043188;28;20246;-68
2022/03/16 00:07:00;;;;;;;14.30;8.77;;;7.50;99.90;;;;;;5053048;28;20231;-69
2022/03/16 00:09:26;;;;;;;14.30;8.60;;;7.40;99.90;;;;;;5040149;28;20228;-68
2022/03/16 00:11:52;;;;;;;17.47;9.63;;;7.40;99.90;;;;;;5051224;28;20228;-70
2022/03/16 00:14:18;;;;;;;11.33;8.00;;;7.40;99.90;;;;;;5034464;28;20220;-69
2022/03/16 00:16:44;;;;;;;12.87;8.13;;;7.40;99.90;;;;;;5035902;28;20994;-68
2022/03/16 00:19:09;;;;;;;10.90;8.27;;;7.40;99.90;;;;;;5047583;28;20219;-68
2022/03/16 00:21:35;;;;;;;13.47;8.20;;;7.30;99.90;;;;;;5053546;28;20602;-68
2022/03/16 00:24:01;;;;;;;14.27;8.27;;;7.30;99.90;;;;;;5028933;28;20226;-69
2022/03/16 00:26:27;;;;;;;11.20;6.77;;;7.30;99.90;;;;;;5038821;28;20227;-67
2022/03/16 00:28:53;;;;;;;10.57;7.37;;;7.30;99.90;;;;;;5052774;28;20529;-70
2022/03/16 00:31:18;;;;;;;10.67;6.77;;;7.30;99.90;;;;;;5035817;28;20554;-70
2022/03/16 00:33:45;;;;;;;12.93;7.60;;;7.20;99.90;;;;;;5024846;28;20217;-69
2022/03/16 00:36:11;;;;;;;10.47;6.80;;;7.20;99.90;;;;;;5050806;28;20457;-70
2022/03/16 00:38:37;;;;;;;11.40;6.87;;;7.20;99.90;;;;;;5039435;28;20240;-69
2022/03/16 00:41:03;;;;;;;9.87;7.30;;;7.20;99.90;;;;;;5033612;28;20225;-67
2022/03/16 00:43:29;;;;;;;9.97;5.93;;;7.20;99.90;;;;;;5043644;28;20682;-69
2022/03/16 00:45:55;;;;;;;9.47;6.70;;;7.20;99.90;;;;;;5050013;28;20549;-67
2022/03/16 00:48:21;;;;;;;10.30;6.67;;;7.20;99.90;;;;;;5034441;28;20232;-67
2022/03/16 00:50:46;;;;;;;11.77;7.57;;;7.10;99.90;;;;;;5036607;28;20219;-68
2022/03/16 00:53:12;;;;;;;9.67;7.10;;;7.10;99.90;;;;;;5033824;28;20635;-69
2022/03/16 00:55:37;;;;;;;11.60;7.20;;;7.10;99.90;;;;;;5031365;28;20703;-70
2022/03/16 00:58:03;;;;;;;11.20;7.23;;;7.00;99.90;;;;;;5031320;28;20793;-68
2022/03/16 01:00:29;;;;;;;9.53;6.63;;;7.00;99.90;;;;;;5032689;28;20318;-68
2022/03/16 01:02:56;;;;;;;12.40;6.40;;;7.00;99.90;;;;;;5043922;28;20591;-68
2022/03/16 01:05:22;;;;;;;11.70;7.07;;;7.00;99.90;;;;;;5051871;28;20450;-70
2022/03/16 01:07:47;;;;;;;10.20;7.10;;;7.00;99.90;;;;;;5023801;28;20244;-68
2022/03/16 01:10:14;;;;;;;11.30;6.63;;;6.90;99.90;;;;;;5021044;28;20710;-69
2022/03/16 01:12:40;;;;;;;13.27;7.23;;;6.90;99.90;;;;;;5046025;28;20466;-68
2022/03/16 01:15:06;;;;;;;8.97;6.47;;;6.90;99.90;;;;;;5033900;28;20312;-69
2022/03/16 01:17:34;;;;;;;10.73;6.80;;;6.90;99.90;;;;;;5033224;28;20224;-69
2022/03/16 01:19:59;;;;;;;12.83;7.63;;;6.80;99.90;;;;;;5042306;28;20509;-68
2022/03/16 01:22:25;;;;;;;10.57;6.40;;;6.80;99.90;;;;;;5030387;28;20221;-70
2022/03/16 01:24:50;;;;;;;9.83;6.60;;;6.80;99.90;;;;;;5029990;28;20221;-69
2022/03/16 01:27:16;;;;;;;10.60;7.17;;;6.80;99.90;;;;;;5029041;28;20224;-69
2022/03/16 01:29:42;;;;;;;10.47;7.00;;;6.80;99.90;;;;;;5034634;28;20296;-68
2022/03/16 01:32:08;;;;;;;9.27;6.80;;;6.80;99.90;;;;;;5027575;28;20278;-69
2022/03/16 01:34:35;;;;;;;10.93;7.47;;;6.70;99.90;;;;;;5048912;28;20558;-69
2022/03/16 01:37:02;;;;;;;10.90;6.70;;;6.70;99.90;;;;;;5032340;28;20448;-68
2022/03/16 01:39:27;;;;;;;11.60;7.17;;;6.70;99.90;;;;;;5030589;28;21087;-69
2022/03/16 01:41:53;;;;;;;12.47;8.30;;;6.70;99.90;;;;;;5049006;28;20452;-69
2022/03/16 01:44:46;;;;;;;12.90;7.13;;;6.70;99.90;;;;;;5015321;28;20254;-68
2022/03/16 01:47:13;;;;;;;10.50;6.50;;;6.70;99.90;;;;;;5015362;28;20471;-69
2022/03/16 01:49:39;;;;;;;11.50;7.10;;;6.60;99.90;;;;;;5018102;28;20834;-68
2022/03/16 01:52:06;;;;;;;9.77;6.60;;;6.60;99.90;;;;;;5027417;28;20467;-68
2022/03/16 01:54:31;;;;;;;7.83;5.70;;;6.60;99.90;;;;;;5032766;28;20216;-69
2022/03/16 01:56:58;;;;;;;7.93;5.30;;;6.60;99.90;;;;;;5022525;28;20463;-71
2022/03/16 01:59:24;;;;;;;10.20;6.70;;;6.60;99.90;;;;;;5030828;28;20213;-68
2022/03/16 02:01:49;;;;;;;8.90;6.63;;;6.50;99.90;;;;;;5026201;28;20569;-68
2022/03/16 02:04:15;;;;;;;11.30;6.97;;;6.50;99.90;;;;;;5053571;28;20223;-68
2022/03/16 02:06:41;;;;;;;10.53;6.77;;;6.50;99.90;;;;;;5027232;28;20217;-68
2022/03/16 02:09:06;;;;;;;13.23;7.90;;;6.50;99.90;;;;;;5033828;28;20244;-68
2022/03/16 02:11:33;;;;;;;12.17;6.73;;;6.50;99.90;;;;;;5020785;28;20307;-70
2022/03/16 02:13:58;;;;;;;17.07;8.03;;;6.50;99.90;;;;;;5017415;28;20658;-69
2022/03/16 02:16:24;;;;;;;14.23;7.90;;;6.40;99.90;;;;;;5021230;28;20223;-69
2022/03/16 02:18:50;;;;;;;15.43;8.03;;;6.40;99.90;;;;;;5032878;28;20238;-68
2022/03/16 02:21:16;;;;;;;14.73;7.57;;;6.40;99.90;;;;;;5023790;28;20208;-68
2022/03/16 02:23:42;;;;;;;17.20;7.97;;;6.40;99.90;;;;;;5029791;28;20239;-69
2022/03/16 02:26:12;;;;;;;18.20;9.10;;;6.40;99.90;;;;;;5033198;28;20458;-67
2022/03/16 02:28:38;;;;;;;17.83;9.37;;;6.30;99.90;;;;;;5016919;28;20221;-69
2022/03/16 02:31:05;;;;;;;20.57;9.53;;;6.40;99.90;;;;;;5026294;28;21008;-70
2022/03/16 02:33:31;;;;;;;18.30;10.50;;;6.30;99.90;;;;;;5024301;28;20236;-72
2022/03/16 02:35:56;;;;;;;24.30;13.33;;;6.30;99.90;;;;;;5029005;28;20946;-67
2022/03/16 02:38:23;;;;;;;16.60;10.57;;;6.30;99.90;;;;;;5020369;28;20251;-68
2022/03/16 02:40:48;;;;;;;17.07;9.03;;;6.30;99.90;;;;;;5048345;28;20224;-67
2022/03/16 02:43:14;;;;;;;16.10;9.20;;;6.30;99.90;;;;;;5031837;28;20526;-69
2022/03/16 02:45:40;;;;;;;14.20;9.77;;;6.20;99.90;;;;;;5020940;28;20302;-69
2022/03/16 02:48:06;;;;;;;13.10;7.20;;;6.30;99.90;;;;;;5043586;28;20232;-69
2022/03/16 02:50:31;;;;;;;15.90;9.03;;;6.30;99.90;;;;;;5030451;28;20652;-68
2022/03/16 02:52:57;;;;;;;17.77;8.83;;;6.20;99.90;;;;;;5034781;28;20223;-68
2022/03/16 02:55:23;;;;;;;19.80;9.70;;;6.20;99.90;;;;;;5049805;28;20219;-70
2022/03/16 02:57:49;;;;;;;16.63;9.73;;;6.20;99.90;;;;;;5044993;28;20467;-68
2022/03/16 03:00:15;;;;;;;20.27;10.00;;;6.20;99.90;;;;;;5029752;28;20224;-68
2022/03/16 03:02:41;;;;;;;24.07;11.80;;;6.20;99.90;;;;;;5030999;28;20231;-70
2022/03/16 03:05:07;;;;;;;16.63;8.63;;;6.20;99.90;;;;;;5033304;28;20439;-68
2022/03/16 03:07:33;;;;;;;16.13;9.07;;;6.20;99.90;;;;;;5043880;28;20298;-69
2022/03/16 03:09:59;;;;;;;15.60;9.40;;;6.20;99.90;;;;;;5047444;28;20514;-68
2022/03/16 03:12:25;;;;;;;17.03;10.27;;;6.20;99.90;;;;;;5035094;28;20242;-68
2022/03/16 03:14:50;;;;;;;16.43;9.20;;;6.20;99.90;;;;;;5028652;28;20221;-68
2022/03/16 03:17:16;;;;;;;23.50;9.93;;;6.20;99.90;;;;;;5048231;28;20228;-69
2022/03/16 03:19:43;;;;;;;21.17;10.93;;;6.20;99.90;;;;;;5042128;28;20235;-69
2022/03/16 03:22:09;;;;;;;19.90;8.83;;;6.20;99.90;;;;;;5028291;28;20224;-68
2022/03/16 03:24:35;;;;;;;23.93;10.90;;;6.10;99.90;;;;;;5024180;28;20451;-68
2022/03/16 03:27:01;;;;;;;19.43;10.43;;;6.10;99.90;;;;;;5028345;28;20447;-68
2022/03/16 03:29:27;;;;;;;16.63;10.03;;;6.10;99.90;;;;;;5034424;28;20446;-69
2022/03/16 03:31:53;;;;;;;17.10;10.43;;;6.10;99.90;;;;;;5024057;28;20231;-70
2022/03/16 03:34:18;;;;;;;16.50;9.53;;;6.20;99.90;;;;;;5028437;28;21051;-68
2022/03/16 03:36:44;;;;;;;13.83;9.30;;;6.20;99.90;;;;;;5029812;28;20243;-70
2022/03/16 03:39:10;;;;;;;16.80;10.00;;;6.20;99.90;;;;;;5032872;28;20231;-68
2022/03/16 03:41:36;;;;;;;18.10;10.40;;;6.10;99.90;;;;;;5039132;28;20720;-68
2022/03/16 03:44:02;;;;;;;13.30;8.63;;;6.10;99.90;;;;;;5035986;28;20347;-67
2022/03/16 03:46:27;;;;;;;16.33;8.77;;;6.10;99.90;;;;;;5038201;28;21641;-67
2022/03/16 03:48:53;;;;;;;17.70;8.33;;;6.10;99.90;;;;;;5042610;28;20227;-69
2022/03/16 03:51:19;;;;;;;11.57;8.13;;;6.10;99.90;;;;;;5025610;28;20244;-68
2022/03/16 03:53:45;;;;;;;16.33;8.43;;;6.10;99.90;;;;;;5025890;28;20236;-71
2022/03/16 03:56:10;;;;;;;16.40;9.40;;;6.10;99.90;;;;;;5033404;28;20302;-69
2022/03/16 03:58:38;;;;;;;15.50;8.50;;;6.10;99.90;;;;;;5036733;28;20209;-68
2022/03/16 04:01:05;;;;;;;17.60;9.30;;;6.10;99.90;;;;;;5013107;28;20217;-70
2022/03/16 04:03:31;;;;;;;15.40;8.20;;;6.10;99.90;;;;;;5033624;28;20456;-73
2022/03/16 04:05:58;;;;;;;12.80;7.93;;;6.20;99.90;;;;;;5032740;28;20554;-68
2022/03/16 04:08:24;;;;;;;18.97;10.00;;;6.10;99.90;;;;;;5037349;28;20458;-71
2022/03/16 04:10:49;;;;;;;13.30;7.37;;;6.10;99.90;;;;;;5041464;28;20455;-69
2022/03/16 04:13:15;;;;;;;12.60;8.40;;;6.10;99.90;;;;;;5031934;28;20225;-68
2022/03/16 04:15:40;;;;;;;14.53;8.10;;;6.10;99.90;;;;;;5040847;28;20691;-68
2022/03/16 04:18:06;;;;;;;13.90;8.93;;;6.10;99.90;;;;;;5038141;28;20225;-68
2022/03/16 04:20:32;;;;;;;16.13;8.90;;;6.10;99.90;;;;;;5030803;28;20248;-69
2022/03/16 04:22:58;;;;;;;13.97;7.87;;;6.10;99.90;;;;;;5027600;28;20253;-68
2022/03/16 04:25:24;;;;;;;16.50;8.80;;;6.10;99.90;;;;;;5040317;28;20220;-69
2022/03/16 04:27:49;;;;;;;17.50;8.80;;;6.10;99.90;;;;;;5030639;28;20467;-68
2022/03/16 04:30:15;;;;;;;13.40;8.27;;;6.10;99.90;;;;;;5038252;28;20217;-68
2022/03/16 04:32:41;;;;;;;16.80;9.13;;;6.10;99.90;;;;;;5038758;28;20228;-68
2022/03/16 04:35:07;;;;;;;11.53;8.20;;;6.10;99.90;;;;;;5029029;28;20221;-69
2022/03/16 04:37:33;;;;;;;15.80;8.30;;;6.10;99.90;;;;;;5043004;28;20230;-70
2022/03/16 04:39:58;;;;;;;16.77;9.50;;;6.10;99.90;;;;;;5028711;28;20494;-68
2022/03/16 04:42:24;;;;;;;20.77;10.03;;;6.10;99.90;;;;;;5043474;28;20240;-68
2022/03/16 04:44:50;;;;;;;17.23;9.67;;;6.10;99.90;;;;;;5028600;28;20607;-69
2022/03/16 04:47:16;;;;;;;21.77;10.40;;;6.10;99.90;;;;;;5045058;28;20224;-68
2022/03/16 04:49:42;;;;;;;18.63;10.67;;;6.20;99.90;;;;;;5045157;28;20227;-68
2022/03/16 04:52:08;;;;;;;18.47;10.20;;;6.20;99.90;;;;;;5044376;28;20467;-69
2022/03/16 04:54:33;;;;;;;18.70;10.57;;;6.20;99.90;;;;;;5033582;28;20220;-69
2022/03/16 04:56:59;;;;;;;19.93;12.80;;;6.20;99.90;;;;;;5042180;28;20307;-68
2022/03/16 04:59:24;;;;;;;20.63;10.90;;;6.20;99.90;;;;;;5020476;28;20217;-69
2022/03/16 05:01:50;;;;;;;21.47;12.87;;;6.20;99.90;;;;;;5023241;28;20224;-69
2022/03/16 05:04:16;;;;;;;19.47;11.00;;;6.20;99.90;;;;;;5024709;28;20225;-69
2022/03/16 05:06:41;;;;;;;25.10;11.73;;;6.20;99.90;;;;;;5024970;28;20273;-70
2022/03/16 05:09:07;;;;;;;17.73;10.67;;;6.20;99.90;;;;;;5036416;28;20314;-67
2022/03/16 05:11:34;;;;;;;16.30;10.43;;;6.20;99.90;;;;;;5045283;28;20244;-70
2022/03/16 05:14:00;;;;;;;22.43;11.63;;;6.20;99.90;;;;;;5050271;28;20220;-67
2022/03/16 05:16:25;;;;;;;24.80;12.23;;;6.20;99.90;;;;;;5015702;28;20497;-68
2022/03/16 05:18:51;;;;;;;22.30;11.43;;;6.20;99.90;;;;;;5035922;28;20223;-68
2022/03/16 05:21:16;;;;;;;22.33;12.10;;;6.20;99.90;;;;;;5037855;28;20212;-68
2022/03/16 05:23:42;;;;;;;22.07;11.50;;;6.20;99.90;;;;;;5049436;28;20236;-70
2022/03/16 05:26:08;;;;;;;20.30;11.37;;;6.20;99.90;;;;;;5042749;28;20228;-67
2022/03/16 05:28:35;;;;;;;25.50;12.27;;;6.20;99.90;;;;;;5025337;28;20216;-68
2022/03/16 05:31:01;;;;;;;23.30;11.90;;;6.20;99.90;;;;;;5032404;28;20286;-71
2022/03/16 05:33:26;;;;;;;22.53;12.40;;;6.30;99.90;;;;;;5047568;28;20455;-69
2022/03/16 05:35:52;;;;;;;24.27;11.97;;;6.30;99.90;;;;;;5014162;28;20270;-68
2022/03/16 05:38:18;;;;;;;29.17;13.57;;;6.20;99.90;;;;;;5039223;28;20227;-70
2022/03/16 05:40:44;;;;;;;22.57;12.23;;;6.30;99.90;;;;;;5040590;28;20221;-69
2022/03/16 05:43:10;;;;;;;24.47;12.90;;;6.30;99.90;;;;;;5030029;28;20216;-68
2022/03/16 05:45:37;;;;;;;19.87;12.30;;;6.30;99.90;;;;;;5035199;28;20504;-68
2022/03/16 05:48:03;;;;;;;22.90;11.30;;;6.30;99.90;;;;;;5037360;28;20824;-68
2022/03/16 05:50:29;;;;;;;21.83;13.00;;;6.30;99.90;;;;;;5033650;28;20954;-72
2022/03/16 05:52:57;;;;;;;23.43;12.40;;;6.30;99.90;;;;;;5020161;28;20468;-72
2022/03/16 05:55:23;;;;;;;20.63;10.80;;;6.30;99.90;;;;;;5044300;28;20515;-68
2022/03/16 05:57:49;;;;;;;24.80;13.07;;;6.30;99.90;;;;;;5043439;28;21033;-69
2022/03/16 06:00:19;;;;;;;23.90;11.90;;;6.20;99.90;;;;;;5028944;28;20699;-69
2022/03/16 06:02:46;;;;;;;22.50;11.87;;;6.20;99.90;;;;;;5023593;28;20561;-69
2022/03/16 06:05:13;;;;;;;24.50;13.27;;;6.20;99.90;;;;;;5045481;28;20454;-69
2022/03/16 06:07:39;;;;;;;25.07;12.43;;;6.20;99.90;;;;;;5049209;28;20458;-69
2022/03/16 06:10:10;;;;;;;25.90;12.70;;;6.20;99.90;;;;;;5050535;28;20476;-69
2022/03/16 06:12:57;;;;;;;25.27;11.77;;;6.20;99.90;;;;;;5034481;28;20221;-70
2022/03/16 06:15:24;;;;;;;21.87;11.00;;;6.20;99.90;;;;;;5021128;28;20451;-70
2022/03/16 06:17:51;;;;;;;21.57;11.40;;;6.20;99.90;;;;;;5046760;28;20455;-68
2022/03/16 06:20:17;;;;;;;21.87;11.73;;;6.20;99.90;;;;;;5039592;28;20561;-68
2022/03/16 06:22:43;;;;;;;20.70;10.60;;;6.20;99.90;;;;;;5018612;28;20539;-69
2022/03/16 06:25:09;;;;;;;20.77;11.07;;;6.20;99.90;;;;;;5041357;28;21008;-69
2022/03/16 06:27:34;;;;;;;21.70;11.70;;;6.20;99.90;;;;;;5032011;28;20308;-70
2022/03/16 06:30:01;;;;;;;21.87;10.97;;;6.20;99.90;;;;;;4992141;28;20227;-67
2022/03/16 06:32:27;;;;;;;25.13;13.23;;;6.20;99.90;;;;;;5046270;28;20226;-69
2022/03/16 06:34:53;;;;;;;22.60;11.53;;;6.20;99.90;;;;;;5029222;28;20460;-70
2022/03/16 06:37:19;;;;;;;19.27;10.37;;;6.10;99.90;;;;;;5035220;28;20461;-70
2022/03/16 06:39:45;;;;;;;18.10;10.30;;;6.10;99.90;;;;;;5034172;28;20319;-71
2022/03/16 06:42:10;;;;;;;16.93;9.60;;;6.00;99.90;;;;;;5039675;28;20235;-70
2022/03/16 06:44:36;;;;;;;20.60;10.40;;;6.00;99.90;;;;;;5038836;28;20293;-69
2022/03/16 06:47:02;;;;;;;20.20;10.50;;;6.00;99.90;;;;;;5029584;28;20251;-69
2022/03/16 06:49:27;;;;;;;17.90;10.70;;;6.00;99.90;;;;;;5035233;28;20247;-71
2022/03/16 06:51:53;;;;;;;22.20;11.70;;;6.00;99.90;;;;;;5035479;28;20468;-70
2022/03/16 06:54:19;;;;;;;20.23;10.80;;;6.00;99.90;;;;;;5029955;28;20370;-69
2022/03/16 06:56:44;;;;;;;25.30;12.60;;;6.00;99.90;;;;;;5042300;28;20231;-69
2022/03/16 06:59:10;;;;;;;29.03;14.07;;;6.00;99.90;;;;;;5033027;28;20223;-69
2022/03/16 07:01:37;;;;;;;27.33;13.37;;;6.00;99.90;;;;;;5034767;28;20224;-72
2022/03/16 07:04:03;;;;;;;24.50;13.70;;;6.00;99.90;;;;;;5024845;28;20217;-69
2022/03/16 07:06:29;;;;;;;27.10;12.40;;;6.00;99.90;;;;;;5028358;28;20913;-69
2022/03/16 07:08:55;;;;;;;19.57;10.87;;;6.00;99.90;;;;;;5033094;28;20533;-69
2022/03/16 07:11:20;;;;;;;18.80;10.60;;;6.00;99.90;;;;;;5044375;28;20227;-72
2022/03/16 07:14:31;;;;;;;22.87;11.43;;;6.00;99.90;;;;;;5028830;28;20217;-71
2022/03/16 07:16:33;;;;;;;21.40;12.17;;;6.00;99.90;;;;;;5028675;28;20260;-69
2022/03/16 07:18:59;;;;;;;51.00;26.53;;;6.00;99.90;;;;;;5016713;28;20464;-73
2022/03/16 07:21:24;;;;;;;39.93;23.80;;;6.00;99.90;;;;;;5025626;28;20550;-71
2022/03/16 07:23:50;;;;;;;23.80;12.63;;;5.90;99.90;;;;;;5046252;28;20911;-69
2022/03/16 07:26:16;;;;;;;30.27;16.00;;;5.90;99.90;;;;;;5036682;28;20756;-68
2022/03/16 07:28:41;;;;;;;33.77;17.27;;;5.80;99.90;;;;;;5031734;28;20655;-69
2022/03/16 07:31:08;;;;;;;25.90;14.87;;;5.90;99.90;;;;;;5038260;28;20733;-71
2022/03/16 07:33:34;;;;;;;29.57;19.40;;;5.90;99.90;;;;;;5037179;28;20946;-73
2022/03/16 07:36:00;;;;;;;31.90;21.93;;;5.90;99.90;;;;;;5033726;28;20493;-68
2022/03/16 07:38:26;;;;;;;29.10;15.77;;;5.90;99.90;;;;;;5034237;28;20898;-69
2022/03/16 07:40:52;;;;;;;27.03;16.77;;;5.90;99.90;;;;;;5034260;28;20454;-68
2022/03/16 07:43:17;;;;;;;30.90;19.73;;;6.00;99.90;;;;;;5028699;28;20219;-73
2022/03/16 07:45:43;;;;;;;33.67;17.70;;;6.00;99.90;;;;;;5037035;28;20307;-69
2022/03/16 07:48:09;;;;;;;23.00;15.37;;;5.90;99.90;;;;;;5031936;28;20239;-68
2022/03/16 07:50:35;;;;;;;23.77;15.03;;;5.90;99.90;;;;;;5025632;28;20308;-69
2022/03/16 07:53:00;;;;;;;28.70;14.67;;;6.00;99.90;;;;;;5040397;28;20232;-68
2022/03/16 07:55:27;;;;;;;22.80;12.43;;;6.00;99.90;;;;;;5035742;28;20223;-70
2022/03/16 07:57:54;;;;;;;21.07;13.07;;;6.00;99.90;;;;;;5026954;28;20234;-67
2022/03/16 08:00:21;;;;;;;23.03;11.87;;;6.00;99.90;;;;;;5034359;28;20505;-69
2022/03/16 08:02:46;;;;;;;20.20;11.50;;;6.00;99.90;;;;;;5051185;28;20470;-69
2022/03/16 08:05:15;;;;;;;23.50;11.53;;;6.00;99.90;;;;;;5034113;28;20537;-69
2022/03/16 08:07:41;;;;;;;25.70;11.07;;;6.00;99.90;;;;;;5033514;28;20228;-70
2022/03/16 08:10:07;;;;;;;20.90;11.27;;;6.00;99.90;;;;;;5034620;28;20459;-72
2022/03/16 08:12:33;;;;;;;19.27;10.27;;;6.00;99.90;;;;;;5033912;28;20485;-70
2022/03/16 08:15:00;;;;;;;17.67;9.30;;;6.00;99.90;;;;;;5033083;28;20499;-71
2022/03/16 08:17:26;;;;;;;21.60;11.10;;;6.00;99.90;;;;;;5029423;28;20234;-69
2022/03/16 08:19:51;;;;;;;20.87;10.87;;;6.00;99.90;;;;;;5031531;28;20450;-69
2022/03/16 08:22:31;;;;;;;28.27;13.87;;;6.00;99.90;;;;;;5033682;28;20485;-70
2022/03/16 08:24:59;;;;;;;19.03;11.17;;;6.00;99.90;;;;;;5036685;28;20274;-71
2022/03/16 08:27:25;;;;;;;19.73;11.03;;;6.00;99.90;;;;;;5033905;28;20519;-71
2022/03/16 08:29:52;;;;;;;20.00;10.70;;;6.00;99.90;;;;;;5047681;28;20479;-70
2022/03/16 08:32:18;;;;;;;21.57;11.20;;;6.00;99.90;;;;;;5028014;28;21016;-74
2022/03/16 08:34:44;;;;;;;25.20;12.23;;;6.10;99.90;;;;;;5033413;28;20961;-69
2022/03/16 08:37:10;;;;;;;22.77;10.30;;;6.00;99.90;;;;;;5037185;28;20471;-72
2022/03/16 08:39:37;;;;;;;20.47;10.47;;;6.00;99.90;;;;;;5037037;28;20232;-69
2022/03/16 08:42:03;;;;;;;20.03;10.40;;;6.10;99.90;;;;;;5040861;28;20469;-69
2022/03/16 08:44:28;;;;;;;21.53;10.83;;;6.10;99.90;;;;;;5021703;28;21037;-68
2022/03/16 08:46:54;;;;;;;28.50;11.60;;;6.10;99.90;;;;;;5042193;28;20463;-71
2022/03/16 08:49:21;;;;;;;19.87;10.77;;;6.10;99.90;;;;;;5045756;28;20229;-68
2022/03/16 08:51:47;;;;;;;23.37;10.13;;;6.10;99.90;;;;;;5036909;28;20252;-69
2022/03/16 08:54:13;;;;;;;19.80;9.80;;;6.10;99.90;;;;;;5037634;28;20517;-71
2022/03/16 08:56:39;;;;;;;26.57;11.50;;;6.10;99.90;;;;;;5046749;28;20462;-72
2022/03/16 08:59:06;;;;;;;19.60;10.17;;;6.10;99.90;;;;;;5039687;28;20459;-68
2022/03/16 09:01:31;;;;;;;21.83;10.93;;;6.10;99.90;;;;;;5035483;28;20735;-72
2022/03/16 09:03:57;;;;;;;17.73;9.60;;;6.10;99.90;;;;;;5040331;28;20451;-69
2022/03/16 09:06:23;;;;;;;24.53;10.83;;;6.20;99.90;;;;;;5037105;28;20615;-73
2022/03/16 09:08:48;;;;;;;22.33;11.13;;;6.20;99.90;;;;;;5039647;28;20232;-68
2022/03/16 09:11:14;;;;;;;155.10;89.20;;;6.20;99.90;;;;;;5045261;28;20232;-69
2022/03/16 09:13:40;;;;;;;163.03;104.17;;;6.30;99.90;;;;;;5034033;28;20278;-69
2022/03/16 09:16:06;;;;;;;111.10;70.97;;;6.30;99.90;;;;;;5042730;28;20790;-69
2022/03/16 09:18:32;;;;;;;67.27;48.43;;;6.30;99.90;;;;;;5036445;28;20223;-69
2022/03/16 09:21:00;;;;;;;46.40;31.60;;;6.40;99.90;;;;;;5036320;28;20459;-73
2022/03/16 09:23:31;;;;;;;38.87;26.83;;;6.40;99.90;;;;;;5039032;28;20220;-68
2022/03/16 09:26:00;;;;;;;30.13;20.17;;;6.40;99.90;;;;;;5039489;28;20448;-68
2022/03/16 09:28:26;;;;;;;30.53;17.30;;;6.40;99.90;;;;;;5038292;28;20449;-69
2022/03/16 09:30:52;;;;;;;18.23;11.60;;;6.40;99.90;;;;;;5038049;28;20443;-68
2022/03/16 09:33:18;;;;;;;20.77;11.40;;;6.40;99.90;;;;;;5017832;28;20508;-68
2022/03/16 09:35:44;;;;;;;19.77;10.70;;;6.50;99.90;;;;;;5036784;28;20638;-70
2022/03/16 09:38:12;;;;;;;24.70;10.80;;;6.50;99.90;;;;;;5030941;28;20215;-70
2022/03/16 09:40:38;;;;;;;24.97;12.07;;;6.50;99.90;;;;;;5037644;28;20256;-70
2022/03/16 09:43:08;;;;;;;29.27;13.03;;;6.50;99.90;;;;;;5020047;28;20463;-69
2022/03/16 09:46:05;;;;;;;24.50;11.97;;;6.50;99.90;;;;;;5030235;28;20443;-71
2022/03/16 09:48:32;;;;;;;18.93;11.17;;;6.60;99.90;;;;;;5022787;28;20440;-70
2022/03/16 09:50:58;;;;;;;24.93;12.50;;;6.60;99.90;;;;;;5045986;28;20454;-71
2022/03/16 09:53:26;;;;;;;23.73;11.67;;;6.60;99.90;;;;;;5034632;28;20943;-71
2022/03/16 09:55:53;;;;;;;20.77;11.37;;;6.60;99.90;;;;;;5031073;28;20513;-69
2022/03/16 09:58:22;;;;;;;20.37;11.00;;;6.70;99.90;;;;;;5035561;28;20475;-71
2022/03/16 10:00:55;;;;;;;21.10;11.03;;;6.70;99.90;;;;;;5038616;28;20494;-69
2022/03/16 10:03:28;;;;;;;20.37;11.73;;;6.70;99.90;;;;;;5029443;28;20521;-70
2022/03/16 10:05:55;;;;;;;22.17;11.13;;;6.80;99.90;;;;;;5032122;28;20460;-72
2022/03/16 10:08:32;;;;;;;19.13;10.90;;;6.80;99.90;;;;;;5034996;28;20459;-69
2022/03/16 10:13:57;;;;;;;23.27;12.03;;;6.90;99.90;;;;;;5034442;28;20451;-69
2022/03/16 10:16:23;;;;;;;24.40;11.50;;;6.90;99.90;;;;;;5048953;28;20445;-68
2022/03/16 10:18:55;;;;;;;22.53;12.17;;;6.90;99.90;;;;;;5033736;28;20492;-67
2022/03/16 10:21:22;;;;;;;21.53;12.13;;;6.90;99.90;;;;;;5049208;28;20454;-68
2022/03/16 10:23:48;;;;;;;24.87;11.47;;;6.90;99.90;;;;;;5035880;28;20463;-72
2022/03/16 10:26:18;;;;;;;20.33;11.80;;;7.00;99.90;;;;;;5037706;28;20474;-68
2022/03/16 10:28:48;;;;;;;21.70;12.10;;;7.00;99.90;;;;;;5036378;28;20459;-70
2022/03/16 10:31:16;;;;;;;20.87;12.13;;;7.10;99.90;;;;;;5036575;28;20474;-69
2022/03/16 10:33:50;;;;;;;25.13;12.67;;;7.10;99.90;;;;;;5035669;28;20539;-69
2022/03/16 10:36:28;;;;;;;22.90;14.33;;;7.10;99.90;;;;;;5023331;28;20454;-70
2022/03/16 10:38:58;;;;;;;22.23;12.40;;;7.10;99.90;;;;;;5031602;28;20455;-70
2022/03/16 10:47:14;;;;;;;26.90;14.40;;;7.30;99.90;;;;;;5031161;28;20487;-70
2022/03/16 10:49:41;;;;;;;24.40;12.67;;;7.30;99.90;;;;;;5028661;28;20442;-69
2022/03/16 10:52:15;;;;;;;29.73;14.97;;;7.30;99.90;;;;;;5020044;28;20573;-72
2022/03/16 10:54:42;;;;;;;24.50;13.67;;;7.40;99.90;;;;;;5028144;28;20479;-74
2022/03/16 10:57:10;;;;;;;29.40;14.23;;;7.40;99.90;;;;;;5037633;28;20985;-71
2022/03/16 10:59:37;;;;;;;28.13;14.73;;;7.40;99.90;;;;;;5040707;28;20478;-72
2022/03/16 11:02:12;;;;;;;20.93;14.10;;;7.50;99.90;;;;;;5024886;28;20491;-69
2022/03/16 11:04:43;;;;;;;25.53;13.23;;;7.50;99.90;;;;;;5022724;28;20589;-71
2022/03/16 11:07:08;;;;;;;21.17;12.10;;;7.60;99.90;;;;;;5039462;28;20456;-71
2022/03/16 11:09:36;;;;;;;23.97;12.73;;;7.60;99.90;;;;;;5025779;28;20530;-69
2022/03/16 11:14:51;;;;;;;21.77;11.37;;;7.70;99.90;;;;;;5027572;28;20482;-70
2022/03/16 11:17:18;;;;;;;27.80;12.33;;;7.80;99.90;;;;;;5027616;28;20493;-71
2022/03/16 11:19:47;;;;;;;23.10;13.30;;;7.80;99.90;;;;;;5036036;28;21025;-73
2022/03/16 11:22:24;;;;;;;21.37;11.83;;;7.90;99.90;;;;;;5026823;28;20463;-72
2022/03/16 11:25:07;;;;;;;29.00;11.93;;;7.90;99.90;;;;;;5045948;28;20521;-70
2022/03/16 11:27:53;;;;;;;20.77;12.63;;;8.00;99.90;;;;;;5034049;28;20475;-73
2022/03/16 11:30:29;;;;;;;25.90;12.60;;;8.10;99.90;;;;;;5035969;28;20447;-70
2022/03/16 11:33:16;;;;;;;23.53;12.93;;;8.10;99.90;;;;;;5030025;28;20458;-75
2022/03/16 11:35:50;;;;;;;22.60;12.30;;;8.20;99.90;;;;;;5031826;28;20515;-70
2022/03/16 11:38:17;;;;;;;25.43;12.90;;;8.20;99.90;;;;;;5031861;28;20470;-69
2022/03/16 11:40:46;;;;;;;25.47;12.90;;;8.30;99.90;;;;;;5029564;28;20511;-74
2022/03/16 11:43:12;;;;;;;23.47;13.30;;;8.40;99.90;;;;;;5030628;28;20537;-72
2022/03/16 11:45:43;;;;;;;16.67;10.70;;;8.40;99.90;;;;;;5031853;28;20561;-74
2022/03/16 11:48:31;;;;;;;24.57;12.73;;;8.50;99.90;;;;;;5030221;28;20315;-73
2022/03/16 11:51:08;;;;;;;21.00;13.07;;;8.60;99.90;;;;;;5026366;28;20458;-70
2022/03/16 11:53:51;;;;;;;21.97;12.77;;;8.70;99.90;;;;;;5034949;28;20496;-72
2022/03/16 11:56:29;;;;;;;22.37;12.87;;;8.70;99.90;;;;;;5035393;28;20461;-71
2022/03/16 11:59:09;;;;;;;17.97;11.60;;;8.70;99.90;;;;;;5031471;28;21053;-70
2022/03/16 12:01:39;;;;;;;23.57;12.93;;;8.80;99.90;;;;;;5025098;28;20439;-69
2022/03/16 12:04:22;;;;;;;23.20;13.10;;;8.90;99.90;;;;;;5030452;28;20842;-71
2022/03/16 12:06:51;;;;;;;20.63;11.67;;;8.90;99.90;;;;;;5040102;28;20915;-70
2022/03/16 12:09:38;;;;;;;23.23;12.97;;;9.00;99.90;;;;;;5031004;28;20484;-69
2022/03/16 12:15:09;;;;;;;24.90;12.97;;;9.10;99.90;;;;;;5040438;28;20466;-71
2022/03/16 12:17:36;;;;;;;17.07;11.40;;;9.20;99.90;;;;;;5029767;28;20491;-70
2022/03/16 12:20:10;;;;;;;18.50;11.60;;;9.20;99.90;;;;;;5028658;28;20490;-71
2022/03/16 12:22:50;;;;;;;19.67;11.87;;;9.30;99.90;;;;;;5025459;28;20569;-73
2022/03/16 12:25:27;;;;;;;21.20;11.90;;;9.40;99.90;;;;;;5022170;28;20459;-72
2022/03/16 12:31:19;;;;;;;20.40;12.33;;;9.60;99.90;;;;;;5037948;28;20478;-71
2022/03/16 12:33:48;;;;;;;17.97;11.67;;;9.70;99.90;;;;;;5034224;28;20454;-74
2022/03/16 12:36:20;;;;;;;19.87;11.07;;;9.70;99.90;;;;;;5030197;28;20485;-70
2022/03/16 12:38:51;;;;;;;20.47;13.10;;;9.80;99.90;;;;;;5036671;28;20857;-71
2022/03/16 12:44:12;;;;;;;23.73;12.70;;;10.00;99.90;;;;;;5032729;28;20467;-67
2022/03/16 12:46:47;;;;;;;19.27;11.80;;;10.00;99.90;;;;;;5032076;28;20473;-73
2022/03/16 12:49:16;;;;;;;24.33;12.50;;;10.00;99.90;;;;;;5032630;28;20478;-73
2022/03/16 12:51:46;;;;;;;19.20;11.17;;;10.10;99.90;;;;;;5038661;28;20470;-76
2022/03/16 12:54:21;;;;;;;20.07;11.53;;;10.10;99.90;;;;;;5043533;28;20455;-72
2022/03/16 12:56:52;;;;;;;20.20;12.07;;;10.10;99.90;;;;;;5036237;28;20511;-73
2022/03/16 12:59:32;;;;;;;18.10;12.10;;;10.20;99.90;;;;;;5036226;28;20455;-71
2022/03/16 13:02:01;;;;;;;19.30;11.93;;;10.20;99.90;;;;;;5032267;28;20803;-71
2022/03/16 13:04:27;;;;;;;21.37;12.87;;;10.20;99.90;;;;;;5036365;28;20840;-68